Terminal Aerodrome Forecast
Issued by NWS

Home | Current Version | Previous Version | Text Only | Print | Product List | Glossary On
Versions: 1 2 3 4 5 6 7 8 9 10 11 12 13 14 15 16 17 18
000
FTUS43 KGRR 300806 AAA
TAFBTL
TAF AMD
KBTL 300806Z 3008/3106 VRB03KT P6SM SCT200
     FM301100 00000KT 5SM BR VCTS BKN035CB
     FM301600 22008KT P6SM VCTS BKN050CB BKN100
     FM302300 24006KT P6SM VCSH BKN040=

USA.gov is the U.S. government's official web portal to all federal, state and local government web resources and services.